createdAt,value
2023-02-16T00:00:38.436Z,91.25
2023-02-16T00:03:05.032Z,84.60
2023-02-16T00:05:34.900Z,88.07
2023-02-16T00:08:02.177Z,95.95
2023-02-16T00:10:35.233Z,100.72
2023-02-16T00:13:24.604Z,101.68
2023-02-16T00:15:51.216Z,106.78
2023-02-16T00:18:20.775Z,109.50
2023-02-16T00:20:49.085Z,111.68
2023-02-16T00:23:15.744Z,112.85
2023-02-16T00:25:42.372Z,120.47
2023-02-16T00:28:15.945Z,120.68
2023-02-16T00:30:42.560Z,122.22
2023-02-16T00:33:20.868Z,130.90
2023-02-16T00:35:48.203Z,136.70
2023-02-16T00:38:15.020Z,138.77
2023-02-16T00:40:42.633Z,149.90
2023-02-16T00:43:22.721Z,250.43
2023-02-16T00:45:49.427Z,157.95
2023-02-16T00:48:16.308Z,164.45
2023-02-16T00:50:42.878Z,176.55
2023-02-16T00:53:10.499Z,178.57
2023-02-16T00:55:38.798Z,188.52
2023-02-16T00:58:30.567Z,194.02
2023-02-16T01:01:09.789Z,203.10
2023-02-16T01:03:37.421Z,205.95
2023-02-16T01:06:22.585Z,205.10
2023-02-16T01:11:34.155Z,175.13
2023-02-16T01:14:00.803Z,193.73
2023-02-16T01:16:38.569Z,210.38
2023-02-16T01:19:05.716Z,208.57
2023-02-16T01:21:33.522Z,213.45
2023-02-16T01:24:00.708Z,209.80
2023-02-16T01:26:27.426Z,214.27
2023-02-16T01:28:53.987Z,216.63
2023-02-16T01:31:20.664Z,205.82
2023-02-16T01:33:47.338Z,192.50
2023-02-16T01:36:26.902Z,185.27
2023-02-16T01:38:53.510Z,164.63
2023-02-16T01:41:57.552Z,165.40
2023-02-16T01:44:39.057Z,151.90
2023-02-16T01:47:13.009Z,166.32
2023-02-16T01:49:39.721Z,191.98
2023-02-16T01:52:19.355Z,189.85
2023-02-16T01:54:52.518Z,191.55
2023-02-16T01:57:39.708Z,186.70
2023-02-16T02:00:16.173Z,174.45
2023-02-16T02:02:54.836Z,178.00
2023-02-16T02:05:37.616Z,166.93
2023-02-16T02:08:16.185Z,156.27
2023-02-16T02:11:06.228Z,157.05
2023-02-16T02:13:38.045Z,157.32
2023-02-16T02:16:06.141Z,167.30
2023-02-16T02:18:33.316Z,160.68
2023-02-16T02:21:21.259Z,154.77
2023-02-16T02:24:25.029Z,159.15
2023-02-16T02:27:09.848Z,157.23
2023-02-16T02:29:59.863Z,163.27
2023-02-16T02:33:03.331Z,159.32
2023-02-16T02:35:51.294Z,163.43
2023-02-16T02:38:53.590Z,173.00
2023-02-16T02:41:49.180Z,153.77
2023-02-16T02:44:20.962Z,173.93
2023-02-16T02:46:48.788Z,158.98
2023-02-16T02:49:15.674Z,156.80
2023-02-16T02:51:42.196Z,156.80
2023-02-16T02:54:30.025Z,148.52
2023-02-16T02:57:17.543Z,144.20
2023-02-16T03:00:09.442Z,139.55
2023-02-16T03:02:37.286Z,142.23
2023-02-16T03:05:06.991Z,132.32
2023-02-16T03:07:47.889Z,147.18
2023-02-16T03:10:42.452Z,127.80
2023-02-16T03:13:25.960Z,135.05
2023-02-16T03:15:57.083Z,136.18
2023-02-16T03:18:44.870Z,137.60
2023-02-16T03:21:33.216Z,141.20
2023-02-16T03:24:21.603Z,134.50
2023-02-16T03:27:09.365Z,137.07
2023-02-16T03:29:38.478Z,123.68
2023-02-16T03:32:06.375Z,125.72
2023-02-16T03:34:36.267Z,121.40
2023-02-16T03:37:05.556Z,107.18
2023-02-16T03:39:32.724Z,102.95
2023-02-16T03:41:59.339Z,93.60
2023-02-16T03:44:25.970Z,90.93
2023-02-16T03:46:53.749Z,105.05
2023-02-16T03:49:21.465Z,109.47
2023-02-16T03:51:48.070Z,112.80
2023-02-16T03:54:14.688Z,110.05
2023-02-16T03:56:41.336Z,111.82
2023-02-16T03:59:08.050Z,107.45
2023-02-16T04:01:34.669Z,109.25
2023-02-16T04:04:01.298Z,104.60
2023-02-16T04:06:27.922Z,111.43
2023-02-16T04:08:54.750Z,112.15
2023-02-16T04:11:39.931Z,112.43
2023-02-16T04:14:06.564Z,108.50
2023-02-16T04:16:33.254Z,104.97
2023-02-16T04:18:59.868Z,102.15
2023-02-16T04:21:26.521Z,94.60
2023-02-16T04:23:53.149Z,98.93
2023-02-16T04:26:19.710Z,86.15
2023-02-16T04:28:46.396Z,86.07
2023-02-16T04:31:13.192Z,93.10
2023-02-16T04:33:40.020Z,97.45
2023-02-16T04:36:07.042Z,102.90
2023-02-16T04:38:33.592Z,98.47
2023-02-16T04:41:00.317Z,115.22
2023-02-16T04:43:27.018Z,117.40
2023-02-16T04:45:53.594Z,126.20
2023-02-16T04:48:20.183Z,121.78
2023-02-16T04:50:46.746Z,132.88
2023-02-16T04:53:13.374Z,122.57
2023-02-16T04:55:39.947Z,120.68
2023-02-16T04:58:06.566Z,122.38
2023-02-16T05:00:35.658Z,121.05
2023-02-16T05:03:03.127Z,121.05
2023-02-16T05:05:29.792Z,108.13
2023-02-16T05:07:56.349Z,113.15
2023-02-16T05:10:22.914Z,121.85
2023-02-16T05:13:08.036Z,116.75
2023-02-16T05:18:02.166Z,98.65
2023-02-16T05:20:47.299Z,108.47
2023-02-16T05:25:40.407Z,94.78
2023-02-16T05:28:07.008Z,101.32
2023-02-16T05:30:33.875Z,110.03
2023-02-16T05:33:00.538Z,129.35
2023-02-16T05:35:27.832Z,122.18
2023-02-16T05:37:54.373Z,117.68
2023-02-16T05:40:21.006Z,130.40
2023-02-16T05:42:47.558Z,141.70
2023-02-16T05:45:14.109Z,130.82
2023-02-16T05:47:40.624Z,123.72
2023-02-16T05:50:07.952Z,121.38
2023-02-16T05:52:34.485Z,116.82
2023-02-16T05:55:01.049Z,137.10
2023-02-16T05:57:27.600Z,143.25
2023-02-16T05:59:54.159Z,115.55
2023-02-16T06:02:20.806Z,116.55
2023-02-16T06:04:47.427Z,114.97
2023-02-16T06:07:15.022Z,111.57
2023-02-16T06:09:41.712Z,107.03
2023-02-16T06:12:08.354Z,104.75
2023-02-16T06:14:34.948Z,111.65
2023-02-16T06:17:01.591Z,116.07
2023-02-16T06:19:28.189Z,123.75
2023-02-16T06:21:54.804Z,106.70
2023-02-16T06:24:21.404Z,102.85
2023-02-16T06:26:47.952Z,107.22
2023-02-16T06:29:14.538Z,109.75
2023-02-16T06:31:41.247Z,114.32
2023-02-16T06:34:08.036Z,115.70
2023-02-16T06:36:34.672Z,117.68
2023-02-16T06:39:01.372Z,117.68
2023-02-16T06:41:40.063Z,122.72
2023-02-16T06:44:09.438Z,117.47
2023-02-16T06:46:36.205Z,114.85
2023-02-16T06:49:02.893Z,124.00
2023-02-16T06:51:29.835Z,124.65
2023-02-16T06:53:56.565Z,123.35
2023-02-16T06:56:23.558Z,119.13
2023-02-16T06:58:50.363Z,133.48
2023-02-16T07:01:22.985Z,135.95
2023-02-16T07:03:51.073Z,139.45
2023-02-16T07:06:18.398Z,134.15
2023-02-16T07:08:45.511Z,142.50
2023-02-16T07:11:12.585Z,144.95
2023-02-16T07:13:39.289Z,145.82
2023-02-16T07:16:07.549Z,153.35
2023-02-16T07:18:34.411Z,157.77
2023-02-16T07:21:01.303Z,165.57
2023-02-16T07:23:28.047Z,153.00
2023-02-16T07:25:54.683Z,149.80
2023-02-16T07:28:21.228Z,147.45
2023-02-16T07:30:47.868Z,159.18
2023-02-16T07:33:18.859Z,165.90
2023-02-16T07:35:45.448Z,166.15
2023-02-16T07:38:12.300Z,166.10
2023-02-16T07:40:39.124Z,190.30
2023-02-16T07:43:06.590Z,175.02
2023-02-16T07:45:34.018Z,180.45
2023-02-16T07:48:02.181Z,169.20
2023-02-16T07:50:28.768Z,164.82
2023-02-16T07:52:55.400Z,166.30
2023-02-16T07:55:22.026Z,171.43
2023-02-16T07:57:49.544Z,162.50
2023-02-16T08:00:16.635Z,164.50
2023-02-16T08:02:43.308Z,212.10
2023-02-16T08:05:10.065Z,176.38
2023-02-16T08:07:36.663Z,171.15
2023-02-16T08:10:03.264Z,166.65
2023-02-16T08:12:29.815Z,177.98
2023-02-16T08:14:56.407Z,155.98
2023-02-16T08:17:23.078Z,160.18
2023-02-16T08:19:50.406Z,161.57
2023-02-16T08:22:18.354Z,162.02
2023-02-16T08:24:45.113Z,170.25
2023-02-16T08:27:11.740Z,175.75
2023-02-16T08:29:38.508Z,186.48
2023-02-16T08:32:07.859Z,182.40
2023-02-16T08:34:35.511Z,181.35
2023-02-16T08:37:02.411Z,197.05
2023-02-16T08:39:31.400Z,200.68
2023-02-16T08:41:58.362Z,203.90
2023-02-16T08:44:25.918Z,215.90
2023-02-16T08:46:55.067Z,199.50
2023-02-16T08:49:24.108Z,195.10
2023-02-16T08:51:54.743Z,162.32
2023-02-16T08:54:33.325Z,153.52
2023-02-16T08:57:02.760Z,149.27
2023-02-16T08:59:29.862Z,110.15
2023-02-16T09:01:58.169Z,101.95
2023-02-16T09:04:25.834Z,85.55
2023-02-16T09:06:53.364Z,67.05
2023-02-16T09:09:20.654Z,65.40
2023-02-16T09:11:48.157Z,61.85
2023-02-16T09:14:17.269Z,65.68
2023-02-16T09:16:45.801Z,70.13
2023-02-16T09:19:19.315Z,63.03
2023-02-16T09:21:47.354Z,66.07
2023-02-16T09:24:13.960Z,67.07
2023-02-16T09:26:42.954Z,72.90
2023-02-16T09:29:12.400Z,73.82
2023-02-16T09:31:39.736Z,70.35
2023-02-16T09:34:17.889Z,67.53
2023-02-16T09:36:45.281Z,66.70
2023-02-16T09:39:12.335Z,74.40
2023-02-16T09:41:57.106Z,69.30
2023-02-16T09:44:42.252Z,67.85
2023-02-16T09:47:26.004Z,60.38
2023-02-16T09:49:56.890Z,62.92
2023-02-16T09:52:37.782Z,68.07
2023-02-16T09:55:16.330Z,61.88
2023-02-16T09:57:58.410Z,64.35
2023-02-16T10:00:33.867Z,68.10
2023-02-16T10:03:29.308Z,60.60
2023-02-16T10:08:31.290Z,57.85
2023-02-16T10:11:32.332Z,56.83
2023-02-16T10:14:06.454Z,59.58
2023-02-16T10:16:39.629Z,63.33
2023-02-16T10:19:21.469Z,64.72
2023-02-16T10:21:53.355Z,58.20
2023-02-16T10:24:20.446Z,61.10
2023-02-16T10:26:59.728Z,59.67
2023-02-16T10:29:26.971Z,56.05
2023-02-16T10:31:59.372Z,62.00
2023-02-16T10:34:50.386Z,60.97
2023-02-16T10:37:47.449Z,61.75
2023-02-16T10:40:30.228Z,56.88
2023-02-16T10:43:07.341Z,52.63
2023-02-16T10:45:55.259Z,49.15
2023-02-16T10:48:23.450Z,44.22
2023-02-16T10:50:50.133Z,43.30
2023-02-16T10:53:21.874Z,42.42
2023-02-16T10:55:48.412Z,45.00
2023-02-16T10:58:24.416Z,46.00
2023-02-16T11:01:00.961Z,42.70
2023-02-16T11:03:36.071Z,44.22
2023-02-16T11:06:25.524Z,46.95
2023-02-16T11:08:59.288Z,45.75
2023-02-16T11:11:27.970Z,38.85
2023-02-16T11:14:18.702Z,37.00
2023-02-16T11:16:46.630Z,38.80
2023-02-16T11:19:22.441Z,40.28
2023-02-16T11:21:55.936Z,37.25
2023-02-16T11:24:35.158Z,39.70
2023-02-16T11:27:06.247Z,41.00
2023-02-16T11:29:34.124Z,39.40
2023-02-16T11:32:06.442Z,41.28
2023-02-16T11:34:40.276Z,42.33
2023-02-16T11:37:25.051Z,44.58
2023-02-16T11:39:55.418Z,41.33
2023-02-16T11:42:44.330Z,41.08
2023-02-16T11:45:22.678Z,40.45
2023-02-16T11:47:55.987Z,42.53
2023-02-16T11:50:35.684Z,39.03
2023-02-16T11:53:14.843Z,41.60
2023-02-16T11:55:44.501Z,41.08
2023-02-16T11:58:24.665Z,41.30
2023-02-16T12:01:19.052Z,40.40
2023-02-16T12:04:03.635Z,41.28
2023-02-16T12:06:49.678Z,41.92
2023-02-16T12:09:43.656Z,40.65
2023-02-16T12:12:17.851Z,39.70
2023-02-16T12:19:51.591Z,36.45
2023-02-16T12:22:32.580Z,37.55
2023-02-16T12:25:07.932Z,38.08
2023-02-16T12:27:51.027Z,39.05
2023-02-16T12:30:33.997Z,36.00
2023-02-16T12:33:15.556Z,37.42
2023-02-16T12:35:59.752Z,33.97
2023-02-16T12:38:51.993Z,36.78
2023-02-16T12:41:37.703Z,36.55
2023-02-16T12:44:10.962Z,35.50
2023-02-16T12:46:46.877Z,35.50
2023-02-16T12:49:24.410Z,35.55
2023-02-16T12:51:57.377Z,33.72
2023-02-16T12:54:57.524Z,34.83
2023-02-16T12:57:30.791Z,33.67
2023-02-16T13:00:04.337Z,35.53
2023-02-16T13:02:43.443Z,35.70
2023-02-16T13:05:32.673Z,33.50
2023-02-16T13:08:17.684Z,32.67
2023-02-16T13:11:03.835Z,34.60
2023-02-16T13:13:34.412Z,31.75
2023-02-16T13:16:08.304Z,33.13
2023-02-16T13:18:44.391Z,35.83
2023-02-16T13:21:42.500Z,33.17
2023-02-16T13:24:18.484Z,32.65
2023-02-16T13:26:57.345Z,33.35
2023-02-16T13:29:47.962Z,33.50
2023-02-16T13:32:41.503Z,31.48
2023-02-16T13:35:30.062Z,28.88
2023-02-16T13:38:15.729Z,31.02
2023-02-16T13:41:06.579Z,29.63
2023-02-16T13:43:45.380Z,28.98
2023-02-16T13:46:30.719Z,33.15
2023-02-16T13:48:58.752Z,33.00
2023-02-16T13:51:29.235Z,29.23
2023-02-16T13:54:02.202Z,32.28
2023-02-16T13:56:29.752Z,29.00
2023-02-16T13:59:20.456Z,28.67
2023-02-16T14:01:50.672Z,30.25
2023-02-16T14:04:23.251Z,32.10
2023-02-16T14:07:15.041Z,30.25
2023-02-16T14:09:41.534Z,35.95
2023-02-16T14:12:14.470Z,31.52
2023-02-16T14:14:47.945Z,32.10
2023-02-16T14:17:24.482Z,33.97
2023-02-16T14:19:50.980Z,34.33
2023-02-16T14:22:20.177Z,31.20
2023-02-16T14:24:55.784Z,31.70
2023-02-16T14:27:58.384Z,36.30
2023-02-16T14:30:34.051Z,32.50
2023-02-16T14:33:12.631Z,32.60
2023-02-16T14:35:41.857Z,32.92
2023-02-16T14:38:18.789Z,33.40
2023-02-16T14:40:55.421Z,31.25
2023-02-16T14:43:41.800Z,33.78
2023-02-16T14:46:11.631Z,33.22
2023-02-16T14:48:58.516Z,33.50
2023-02-16T14:51:40.453Z,37.65
2023-02-16T14:54:41.288Z,34.95
2023-02-16T14:57:16.671Z,34.42
2023-02-16T15:00:02.744Z,35.92
2023-02-16T15:02:34.044Z,34.13
2023-02-16T15:05:21.495Z,34.10
2023-02-16T15:07:52.269Z,35.40
2023-02-16T15:10:27.930Z,36.50
2023-02-16T15:12:57.923Z,36.95
2023-02-16T15:15:42.519Z,38.38
2023-02-16T15:18:21.283Z,40.10
2023-02-16T15:20:53.134Z,43.25
2023-02-16T15:23:26.448Z,42.45
2023-02-16T15:26:03.159Z,43.00
2023-02-16T15:28:35.920Z,43.60
2023-02-16T15:31:06.790Z,44.10
2023-02-16T15:33:43.913Z,44.97
2023-02-16T15:36:14.367Z,42.90
2023-02-16T15:38:54.025Z,42.33
2023-02-16T15:41:35.526Z,44.10
2023-02-16T15:44:05.054Z,44.80
2023-02-16T15:46:40.353Z,47.20
2023-02-16T15:49:15.120Z,44.40
2023-02-16T15:51:43.249Z,50.50
2023-02-16T15:54:16.575Z,47.75
2023-02-16T15:56:48.647Z,47.28
2023-02-16T15:59:35.185Z,50.05
2023-02-16T16:02:11.988Z,47.45
2023-02-16T16:04:47.375Z,49.50
2023-02-16T16:07:24.996Z,49.25
2023-02-16T16:09:52.298Z,50.08
2023-02-16T16:12:20.735Z,49.83
2023-02-16T16:14:56.120Z,50.53
2023-02-16T16:17:31.672Z,48.15
2023-02-16T16:20:19.106Z,51.38
2023-02-16T16:22:45.988Z,52.60
2023-02-16T16:25:32.663Z,54.85
2023-02-16T16:28:00.315Z,54.85
2023-02-16T16:30:29.722Z,55.40
2023-02-16T16:33:05.047Z,54.40
2023-02-16T16:35:41.313Z,52.42
2023-02-16T16:38:33.288Z,51.47
2023-02-16T16:41:03.653Z,50.58
2023-02-16T16:43:34.878Z,50.75
2023-02-16T16:46:07.516Z,50.75
2023-02-16T16:48:37.289Z,49.45
2023-02-16T16:51:14.552Z,48.45
2023-02-16T16:53:50.281Z,49.50
2023-02-16T16:56:16.926Z,49.83
2023-02-16T16:58:43.520Z,47.47
2023-02-16T17:01:12.933Z,47.28
2023-02-16T17:03:39.465Z,48.65
2023-02-16T17:06:06.963Z,47.55
2023-02-16T17:08:33.616Z,48.42
2023-02-16T17:11:01.311Z,50.95
2023-02-16T17:13:28.009Z,48.58
2023-02-16T17:16:00.650Z,50.92
2023-02-16T17:18:27.238Z,53.85
2023-02-16T17:20:54.028Z,53.03
2023-02-16T17:23:22.234Z,53.88
2023-02-16T17:25:49.499Z,55.42
2023-02-16T17:28:18.934Z,60.25
2023-02-16T17:30:46.126Z,50.53
2023-02-16T17:33:12.759Z,54.30
2023-02-16T17:35:41.839Z,50.42
2023-02-16T17:38:13.669Z,50.33
2023-02-16T17:40:41.346Z,46.50
2023-02-16T17:43:13.608Z,48.30
2023-02-16T17:45:40.627Z,48.47
2023-02-16T17:48:07.390Z,47.45
2023-02-16T17:50:34.250Z,45.53
2023-02-16T17:53:00.809Z,43.58
2023-02-16T17:55:27.609Z,44.53
2023-02-16T17:57:55.808Z,47.28
2023-02-16T18:00:22.851Z,47.22
2023-02-16T18:02:49.545Z,43.42
2023-02-16T18:05:16.284Z,47.40
2023-02-16T18:07:42.900Z,45.53
2023-02-16T18:10:35.181Z,48.05
2023-02-16T18:13:02.231Z,46.85
2023-02-16T18:15:31.626Z,47.03
2023-02-16T18:17:59.618Z,49.65
2023-02-16T18:20:26.743Z,52.17
2023-02-16T18:22:54.053Z,48.25
2023-02-16T18:25:20.930Z,52.40
2023-02-16T18:27:47.508Z,58.45
2023-02-16T18:30:16.250Z,56.67
2023-02-16T18:32:43.034Z,59.83
2023-02-16T18:35:10.789Z,60.95
2023-02-16T18:37:38.276Z,56.90
2023-02-16T18:40:08.546Z,56.08
2023-02-16T18:42:35.948Z,52.30
2023-02-16T18:45:03.082Z,47.92
2023-02-16T18:47:29.877Z,50.53
2023-02-16T18:49:56.499Z,49.95
2023-02-16T18:52:23.774Z,55.83
2023-02-16T18:54:50.708Z,63.53
2023-02-16T18:57:17.622Z,55.67
2023-02-16T18:59:44.244Z,57.00
2023-02-16T19:02:12.185Z,48.83
2023-02-16T19:04:38.972Z,59.90
2023-02-16T19:07:05.679Z,50.03
2023-02-16T19:09:33.653Z,54.88
2023-02-16T19:12:00.294Z,47.92
2023-02-16T19:14:26.896Z,46.28
2023-02-16T19:16:53.504Z,45.00
2023-02-16T19:19:20.307Z,55.15
2023-02-16T19:21:46.906Z,47.80
2023-02-16T19:24:13.738Z,49.35
2023-02-16T19:26:40.976Z,53.58
2023-02-16T19:29:07.630Z,55.47
2023-02-16T19:31:35.569Z,55.92
2023-02-16T19:34:02.487Z,46.60
2023-02-16T19:36:31.986Z,54.25
2023-02-16T19:38:58.845Z,61.38
2023-02-16T19:41:37.508Z,47.78
2023-02-16T19:44:04.427Z,47.92
2023-02-16T19:46:32.888Z,48.13
2023-02-16T19:49:00.303Z,54.47
2023-02-16T19:51:27.076Z,55.97
2023-02-16T19:53:54.250Z,49.47
2023-02-16T19:56:24.398Z,54.97
2023-02-16T19:58:51.235Z,55.90
2023-02-16T20:01:21.395Z,51.85
2023-02-16T20:03:49.584Z,48.38
2023-02-16T20:06:19.398Z,55.75
2023-02-16T20:08:47.216Z,54.30
2023-02-16T20:11:14.779Z,57.65
2023-02-16T20:13:41.448Z,47.40
2023-02-16T20:16:10.091Z,44.10
2023-02-16T20:18:37.776Z,50.08
2023-02-16T20:21:07.246Z,53.28
2023-02-16T20:23:34.593Z,51.72
2023-02-16T20:26:06.216Z,53.75
2023-02-16T20:28:33.939Z,51.17
2023-02-16T20:31:01.041Z,53.95
2023-02-16T20:33:28.059Z,47.47
2023-02-16T20:35:54.654Z,52.22
2023-02-16T20:38:21.270Z,49.97
2023-02-16T20:40:47.872Z,51.78
2023-02-16T20:43:15.646Z,46.03
2023-02-16T20:45:43.041Z,47.30
2023-02-16T20:48:10.544Z,50.60
2023-02-16T20:50:37.448Z,46.08
2023-02-16T20:53:04.499Z,45.78
2023-02-16T20:55:31.951Z,46.50
2023-02-16T20:58:00.022Z,48.65
2023-02-16T21:00:27.702Z,52.53
2023-02-16T21:02:54.476Z,58.35
2023-02-16T21:05:22.478Z,52.20
2023-02-16T21:07:49.986Z,56.97
2023-02-16T21:10:16.744Z,45.38
2023-02-16T21:12:43.386Z,61.55
2023-02-16T21:15:10.243Z,57.85
2023-02-16T21:17:37.418Z,58.22
2023-02-16T21:20:06.781Z,49.10
2023-02-16T21:22:33.584Z,49.53
2023-02-16T21:25:01.313Z,45.53
2023-02-16T21:27:27.940Z,52.95
2023-02-16T21:29:54.557Z,46.17
2023-02-16T21:32:21.145Z,45.78
2023-02-16T21:34:47.735Z,48.53
2023-02-16T21:37:14.366Z,45.25
2023-02-16T21:39:59.288Z,47.83
2023-02-16T21:42:25.892Z,43.70
2023-02-16T21:45:12.383Z,44.72
2023-02-16T21:48:02.537Z,40.60
2023-02-16T21:50:31.124Z,40.22
2023-02-16T21:52:59.779Z,42.33
2023-02-16T21:55:46.157Z,46.22
2023-02-16T21:58:12.727Z,44.38
2023-02-16T22:00:39.467Z,44.00
2023-02-16T22:03:06.347Z,45.65
2023-02-16T22:05:34.793Z,52.63
2023-02-16T22:08:02.190Z,49.97
2023-02-16T22:10:29.184Z,45.78
2023-02-16T22:12:57.245Z,52.03
2023-02-16T22:15:24.140Z,46.55
2023-02-16T22:17:50.660Z,44.63
2023-02-16T22:20:19.022Z,45.00
2023-02-16T22:22:45.642Z,47.92
2023-02-16T22:25:13.712Z,46.85
2023-02-16T22:27:40.820Z,43.78
2023-02-16T22:30:08.239Z,45.58
2023-02-16T22:32:34.945Z,46.15
2023-02-16T22:35:01.674Z,51.00
2023-02-16T22:37:28.315Z,52.72
2023-02-16T22:39:55.236Z,50.25
2023-02-16T22:42:22.657Z,46.92
2023-02-16T22:44:49.228Z,43.30
2023-02-16T22:47:15.804Z,44.58
2023-02-16T22:49:42.393Z,45.13
2023-02-16T22:52:11.633Z,43.53
2023-02-16T22:54:38.705Z,43.20
2023-02-16T22:57:07.189Z,42.80
2023-02-16T22:59:34.010Z,44.20
2023-02-16T23:02:00.636Z,42.03
2023-02-16T23:04:27.291Z,46.75
2023-02-16T23:06:53.881Z,50.20
2023-02-16T23:09:22.051Z,42.83
2023-02-16T23:11:49.517Z,47.10
2023-02-16T23:14:16.768Z,48.65
2023-02-16T23:16:45.431Z,45.45
2023-02-16T23:19:17.606Z,48.03
2023-02-16T23:21:44.854Z,49.92
2023-02-16T23:24:17.565Z,43.40
2023-02-16T23:26:44.467Z,43.00
2023-02-16T23:29:11.384Z,50.00
2023-02-16T23:31:40.455Z,48.90
2023-02-16T23:34:07.991Z,47.40
2023-02-16T23:36:36.480Z,43.53
2023-02-16T23:39:07.050Z,46.88
2023-02-16T23:41:33.767Z,47.95
2023-02-16T23:44:01.291Z,50.35
2023-02-16T23:46:28.812Z,47.25
2023-02-16T23:48:55.537Z,47.35
2023-02-16T23:51:22.480Z,47.47
2023-02-16T23:53:49.477Z,47.25
2023-02-16T23:56:21.926Z,47.28
2023-02-16T23:58:49.418Z,50.25
